sensor_id;sensor_type;location;lat;lon;timestamp;P1;durP1;ratioP1;P2;durP2;ratioP2
42518;SDS011;28147;47.520;18.920;2022-12-15T00:01:12;24.13;;;11.13;;
42518;SDS011;28147;47.520;18.920;2022-12-15T00:03:48;26.65;;;11.95;;
42518;SDS011;28147;47.520;18.920;2022-12-15T00:06:23;22.48;;;11.50;;
42518;SDS011;28147;47.520;18.920;2022-12-15T00:08:58;22.88;;;11.65;;
42518;SDS011;28147;47.520;18.920;2022-12-15T00:11:34;23.63;;;11.88;;
42518;SDS011;28147;47.520;18.920;2022-12-15T00:14:10;24.88;;;11.70;;
42518;SDS011;28147;47.520;18.920;2022-12-15T00:16:45;25.73;;;12.32;;
42518;SDS011;28147;47.520;18.920;2022-12-15T00:20:49;20.85;;;11.63;;
42518;SDS011;28147;47.520;18.920;2022-12-15T00:23:28;24.95;;;12.13;;
42518;SDS011;28147;47.520;18.920;2022-12-15T00:27:21;21.58;;;11.05;;
42518;SDS011;28147;47.520;18.920;2022-12-15T00:29:55;23.13;;;11.20;;
42518;SDS011;28147;47.520;18.920;2022-12-15T00:33:42;21.27;;;11.38;;
42518;SDS011;28147;47.520;18.920;2022-12-15T00:36:15;23.85;;;11.05;;
42518;SDS011;28147;47.520;18.920;2022-12-15T00:38:53;22.95;;;12.65;;
42518;SDS011;28147;47.520;18.920;2022-12-15T00:41:18;21.58;;;11.90;;
42518;SDS011;28147;47.520;18.920;2022-12-15T00:43:44;20.77;;;11.10;;
42518;SDS011;28147;47.520;18.920;2022-12-15T00:46:10;20.38;;;10.23;;
42518;SDS011;28147;47.520;18.920;2022-12-15T00:48:57;23.67;;;11.32;;
42518;SDS011;28147;47.520;18.920;2022-12-15T00:51:23;19.67;;;10.30;;
42518;SDS011;28147;47.520;18.920;2022-12-15T00:53:57;25.70;;;11.68;;
42518;SDS011;28147;47.520;18.920;2022-12-15T00:56:38;26.02;;;12.95;;
42518;SDS011;28147;47.520;18.920;2022-12-15T00:59:16;29.15;;;11.45;;
42518;SDS011;28147;47.520;18.920;2022-12-15T01:01:53;25.27;;;11.52;;
42518;SDS011;28147;47.520;18.920;2022-12-15T01:04:36;27.58;;;11.88;;
42518;SDS011;28147;47.520;18.920;2022-12-15T01:07:15;22.73;;;11.07;;
42518;SDS011;28147;47.520;18.920;2022-12-15T01:09:54;21.58;;;11.02;;
42518;SDS011;28147;47.520;18.920;2022-12-15T01:14:35;22.75;;;10.88;;
42518;SDS011;28147;47.520;18.920;2022-12-15T01:17:10;30.05;;;11.82;;
42518;SDS011;28147;47.520;18.920;2022-12-15T01:19:43;22.58;;;11.18;;
42518;SDS011;28147;47.520;18.920;2022-12-15T01:22:21;18.77;;;10.55;;
42518;SDS011;28147;47.520;18.920;2022-12-15T01:24:47;21.17;;;10.98;;
42518;SDS011;28147;47.520;18.920;2022-12-15T01:27:12;20.17;;;10.88;;
42518;SDS011;28147;47.520;18.920;2022-12-15T01:29:37;30.13;;;11.25;;
42518;SDS011;28147;47.520;18.920;2022-12-15T01:32:39;22.00;;;10.70;;
42518;SDS011;28147;47.520;18.920;2022-12-15T01:35:17;21.33;;;10.93;;
42518;SDS011;28147;47.520;18.920;2022-12-15T01:37:43;27.83;;;11.80;;
42518;SDS011;28147;47.520;18.920;2022-12-15T01:40:10;18.90;;;10.65;;
42518;SDS011;28147;47.520;18.920;2022-12-15T01:42:51;22.17;;;10.35;;
42518;SDS011;28147;47.520;18.920;2022-12-15T01:47:55;24.00;;;11.90;;
42518;SDS011;28147;47.520;18.920;2022-12-15T01:53:46;27.17;;;11.93;;
42518;SDS011;28147;47.520;18.920;2022-12-15T01:56:13;22.92;;;11.32;;
42518;SDS011;28147;47.520;18.920;2022-12-15T01:58:48;19.52;;;11.18;;
42518;SDS011;28147;47.520;18.920;2022-12-15T02:01:27;23.48;;;11.07;;
42518;SDS011;28147;47.520;18.920;2022-12-15T02:05:53;20.25;;;11.05;;
42518;SDS011;28147;47.520;18.920;2022-12-15T02:08:19;21.90;;;10.15;;
42518;SDS011;28147;47.520;18.920;2022-12-15T02:18:57;22.17;;;11.02;;
42518;SDS011;28147;47.520;18.920;2022-12-15T02:36:38;24.90;;;13.18;;
42518;SDS011;28147;47.520;18.920;2022-12-15T02:39:40;25.42;;;12.85;;
42518;SDS011;28147;47.520;18.920;2022-12-15T02:42:05;22.48;;;12.07;;
42518;SDS011;28147;47.520;18.920;2022-12-15T02:44:34;20.48;;;10.95;;
42518;SDS011;28147;47.520;18.920;2022-12-15T02:56:31;22.73;;;11.55;;
42518;SDS011;28147;47.520;18.920;2022-12-15T03:01:45;27.25;;;12.73;;
42518;SDS011;28147;47.520;18.920;2022-12-15T03:04:16;22.45;;;11.27;;
42518;SDS011;28147;47.520;18.920;2022-12-15T03:08:19;19.42;;;11.48;;
42518;SDS011;28147;47.520;18.920;2022-12-15T03:10:45;22.80;;;11.70;;
42518;SDS011;28147;47.520;18.920;2022-12-15T03:13:13;26.13;;;11.82;;
42518;SDS011;28147;47.520;18.920;2022-12-15T03:17:24;23.05;;;11.70;;
42518;SDS011;28147;47.520;18.920;2022-12-15T03:19:49;23.23;;;10.40;;
42518;SDS011;28147;47.520;18.920;2022-12-15T03:22:15;20.80;;;11.27;;
42518;SDS011;28147;47.520;18.920;2022-12-15T03:24:40;19.30;;;10.40;;
42518;SDS011;28147;47.520;18.920;2022-12-15T03:27:05;20.17;;;10.48;;
42518;SDS011;28147;47.520;18.920;2022-12-15T03:29:31;22.67;;;11.55;;
42518;SDS011;28147;47.520;18.920;2022-12-15T03:33:40;23.45;;;11.80;;
42518;SDS011;28147;47.520;18.920;2022-12-15T03:38:37;29.88;;;12.40;;
42518;SDS011;28147;47.520;18.920;2022-12-15T03:41:03;21.85;;;11.52;;
42518;SDS011;28147;47.520;18.920;2022-12-15T03:43:28;27.02;;;11.52;;
42518;SDS011;28147;47.520;18.920;2022-12-15T03:46:00;25.13;;;11.45;;
42518;SDS011;28147;47.520;18.920;2022-12-15T03:48:26;22.40;;;11.48;;
42518;SDS011;28147;47.520;18.920;2022-12-15T03:50:51;26.75;;;12.98;;
42518;SDS011;28147;47.520;18.920;2022-12-15T03:53:17;22.08;;;11.48;;
42518;SDS011;28147;47.520;18.920;2022-12-15T03:55:42;25.70;;;13.40;;
42518;SDS011;28147;47.520;18.920;2022-12-15T03:58:07;28.30;;;12.20;;
42518;SDS011;28147;47.520;18.920;2022-12-15T04:00:33;25.60;;;12.05;;
42518;SDS011;28147;47.520;18.920;2022-12-15T04:02:58;24.92;;;11.80;;
42518;SDS011;28147;47.520;18.920;2022-12-15T04:05:25;25.63;;;11.68;;
42518;SDS011;28147;47.520;18.920;2022-12-15T04:07:53;21.20;;;11.82;;
42518;SDS011;28147;47.520;18.920;2022-12-15T04:11:39;22.75;;;10.82;;
42518;SDS011;28147;47.520;18.920;2022-12-15T04:14:05;21.42;;;10.70;;
42518;SDS011;28147;47.520;18.920;2022-12-15T04:16:30;24.88;;;10.95;;
42518;SDS011;28147;47.520;18.920;2022-12-15T04:20:25;26.83;;;10.52;;
42518;SDS011;28147;47.520;18.920;2022-12-15T04:22:50;23.83;;;10.73;;
42518;SDS011;28147;47.520;18.920;2022-12-15T04:25:17;21.63;;;10.48;;
42518;SDS011;28147;47.520;18.920;2022-12-15T04:27:55;25.70;;;12.02;;
42518;SDS011;28147;47.520;18.920;2022-12-15T04:32:42;29.20;;;12.27;;
42518;SDS011;28147;47.520;18.920;2022-12-15T04:35:18;26.60;;;11.57;;
42518;SDS011;28147;47.520;18.920;2022-12-15T04:37:54;22.10;;;10.85;;
42518;SDS011;28147;47.520;18.920;2022-12-15T04:40:30;25.83;;;12.10;;
42518;SDS011;28147;47.520;18.920;2022-12-15T04:44:16;23.75;;;12.73;;
42518;SDS011;28147;47.520;18.920;2022-12-15T04:46:55;24.02;;;12.43;;
42518;SDS011;28147;47.520;18.920;2022-12-15T04:49:32;31.90;;;13.38;;
42518;SDS011;28147;47.520;18.920;2022-12-15T04:52:06;32.03;;;14.15;;
42518;SDS011;28147;47.520;18.920;2022-12-15T04:54:40;32.20;;;14.38;;
42518;SDS011;28147;47.520;18.920;2022-12-15T04:57:24;26.52;;;12.95;;
42518;SDS011;28147;47.520;18.920;2022-12-15T05:00:13;25.17;;;12.05;;
42518;SDS011;28147;47.520;18.920;2022-12-15T05:02:49;25.20;;;12.75;;
42518;SDS011;28147;47.520;18.920;2022-12-15T05:05:23;26.83;;;13.13;;
42518;SDS011;28147;47.520;18.920;2022-12-15T05:07:57;29.50;;;13.13;;
42518;SDS011;28147;47.520;18.920;2022-12-15T05:10:33;26.70;;;13.82;;
42518;SDS011;28147;47.520;18.920;2022-12-15T05:13:09;29.13;;;13.70;;
42518;SDS011;28147;47.520;18.920;2022-12-15T05:15:44;28.75;;;13.00;;
42518;SDS011;28147;47.520;18.920;2022-12-15T05:18:28;29.17;;;12.88;;
42518;SDS011;28147;47.520;18.920;2022-12-15T05:21:12;28.95;;;13.23;;
42518;SDS011;28147;47.520;18.920;2022-12-15T05:23:56;30.45;;;12.07;;
42518;SDS011;28147;47.520;18.920;2022-12-15T05:26:45;27.77;;;13.32;;
42518;SDS011;28147;47.520;18.920;2022-12-15T05:29:21;34.58;;;13.93;;
42518;SDS011;28147;47.520;18.920;2022-12-15T05:31:54;25.23;;;11.38;;
42518;SDS011;28147;47.520;18.920;2022-12-15T05:34:20;31.08;;;14.00;;
42518;SDS011;28147;47.520;18.920;2022-12-15T05:36:48;34.13;;;12.95;;
42518;SDS011;28147;47.520;18.920;2022-12-15T05:39:14;29.33;;;13.98;;
42518;SDS011;28147;47.520;18.920;2022-12-15T05:41:39;56.80;;;24.17;;
42518;SDS011;28147;47.520;18.920;2022-12-15T05:44:05;38.05;;;17.75;;
42518;SDS011;28147;47.520;18.920;2022-12-15T05:46:31;33.65;;;15.32;;
42518;SDS011;28147;47.520;18.920;2022-12-15T05:48:57;30.88;;;14.73;;
42518;SDS011;28147;47.520;18.920;2022-12-15T05:51:23;25.35;;;13.10;;
42518;SDS011;28147;47.520;18.920;2022-12-15T05:53:48;26.15;;;12.55;;
42518;SDS011;28147;47.520;18.920;2022-12-15T05:56:14;24.58;;;12.48;;
42518;SDS011;28147;47.520;18.920;2022-12-15T05:58:39;28.10;;;12.48;;
42518;SDS011;28147;47.520;18.920;2022-12-15T06:01:09;28.67;;;12.75;;
42518;SDS011;28147;47.520;18.920;2022-12-15T06:03:37;26.92;;;11.65;;
42518;SDS011;28147;47.520;18.920;2022-12-15T06:06:11;27.20;;;12.88;;
42518;SDS011;28147;47.520;18.920;2022-12-15T06:08:38;22.27;;;11.52;;
42518;SDS011;28147;47.520;18.920;2022-12-15T06:11:05;25.40;;;12.18;;
42518;SDS011;28147;47.520;18.920;2022-12-15T06:13:31;25.13;;;12.48;;
42518;SDS011;28147;47.520;18.920;2022-12-15T06:21:19;27.42;;;12.60;;
42518;SDS011;28147;47.520;18.920;2022-12-15T06:23:47;24.67;;;12.07;;
42518;SDS011;28147;47.520;18.920;2022-12-15T06:26:14;22.52;;;11.68;;
42518;SDS011;28147;47.520;18.920;2022-12-15T06:28:43;27.25;;;13.45;;
42518;SDS011;28147;47.520;18.920;2022-12-15T06:31:09;28.70;;;12.88;;
42518;SDS011;28147;47.520;18.920;2022-12-15T06:33:36;24.63;;;13.23;;
42518;SDS011;28147;47.520;18.920;2022-12-15T06:36:02;27.77;;;13.88;;
42518;SDS011;28147;47.520;18.920;2022-12-15T06:38:29;26.20;;;13.38;;
42518;SDS011;28147;47.520;18.920;2022-12-15T06:40:55;21.40;;;11.90;;
42518;SDS011;28147;47.520;18.920;2022-12-15T06:43:21;21.92;;;12.48;;
42518;SDS011;28147;47.520;18.920;2022-12-15T06:45:47;30.80;;;13.45;;
42518;SDS011;28147;47.520;18.920;2022-12-15T06:48:13;23.27;;;12.68;;
42518;SDS011;28147;47.520;18.920;2022-12-15T06:50:39;28.63;;;13.52;;
42518;SDS011;28147;47.520;18.920;2022-12-15T06:53:05;27.48;;;12.73;;
42518;SDS011;28147;47.520;18.920;2022-12-15T06:55:30;25.08;;;12.07;;
42518;SDS011;28147;47.520;18.920;2022-12-15T06:57:56;30.70;;;13.35;;
42518;SDS011;28147;47.520;18.920;2022-12-15T07:00:21;26.92;;;14.02;;
42518;SDS011;28147;47.520;18.920;2022-12-15T07:02:47;32.08;;;14.93;;
42518;SDS011;28147;47.520;18.920;2022-12-15T07:05:12;30.60;;;15.02;;
42518;SDS011;28147;47.520;18.920;2022-12-15T07:07:38;38.40;;;16.40;;
42518;SDS011;28147;47.520;18.920;2022-12-15T07:10:53;39.22;;;16.63;;
42518;SDS011;28147;47.520;18.920;2022-12-15T07:13:18;34.63;;;15.27;;
42518;SDS011;28147;47.520;18.920;2022-12-15T07:15:43;36.80;;;16.52;;
42518;SDS011;28147;47.520;18.920;2022-12-15T07:18:09;36.10;;;16.65;;
42518;SDS011;28147;47.520;18.920;2022-12-15T07:20:35;34.63;;;17.33;;
42518;SDS011;28147;47.520;18.920;2022-12-15T07:23:01;39.60;;;17.40;;
42518;SDS011;28147;47.520;18.920;2022-12-15T07:25:32;36.88;;;16.48;;
42518;SDS011;28147;47.520;18.920;2022-12-15T07:27:59;41.17;;;17.35;;
42518;SDS011;28147;47.520;18.920;2022-12-15T07:30:24;39.58;;;17.55;;
42518;SDS011;28147;47.520;18.920;2022-12-15T07:32:50;34.65;;;17.17;;
42518;SDS011;28147;47.520;18.920;2022-12-15T07:35:15;36.17;;;17.40;;
42518;SDS011;28147;47.520;18.920;2022-12-15T07:37:41;32.15;;;15.45;;
42518;SDS011;28147;47.520;18.920;2022-12-15T07:40:07;34.53;;;16.20;;
42518;SDS011;28147;47.520;18.920;2022-12-15T07:42:33;42.30;;;17.42;;
42518;SDS011;28147;47.520;18.920;2022-12-15T07:44:59;40.45;;;17.55;;
42518;SDS011;28147;47.520;18.920;2022-12-15T07:47:24;40.38;;;17.50;;
42518;SDS011;28147;47.520;18.920;2022-12-15T07:49:49;34.90;;;16.02;;
42518;SDS011;28147;47.520;18.920;2022-12-15T07:52:15;34.63;;;15.57;;
42518;SDS011;28147;47.520;18.920;2022-12-15T07:54:41;36.13;;;17.15;;
42518;SDS011;28147;47.520;18.920;2022-12-15T07:57:06;36.20;;;16.05;;
42518;SDS011;28147;47.520;18.920;2022-12-15T07:59:32;40.05;;;17.92;;
42518;SDS011;28147;47.520;18.920;2022-12-15T08:01:58;35.03;;;17.48;;
42518;SDS011;28147;47.520;18.920;2022-12-15T08:04:25;40.45;;;16.95;;
42518;SDS011;28147;47.520;18.920;2022-12-15T08:06:54;37.40;;;17.92;;
42518;SDS011;28147;47.520;18.920;2022-12-15T08:09:20;51.25;;;19.73;;
42518;SDS011;28147;47.520;18.920;2022-12-15T08:11:45;37.47;;;18.55;;
42518;SDS011;28147;47.520;18.920;2022-12-15T08:14:11;39.10;;;18.25;;
42518;SDS011;28147;47.520;18.920;2022-12-15T08:16:37;41.70;;;18.75;;
42518;SDS011;28147;47.520;18.920;2022-12-15T08:19:03;41.25;;;18.83;;
42518;SDS011;28147;47.520;18.920;2022-12-15T08:21:29;39.45;;;20.27;;
42518;SDS011;28147;47.520;18.920;2022-12-15T08:23:55;42.22;;;19.30;;
42518;SDS011;28147;47.520;18.920;2022-12-15T08:26:21;41.90;;;19.73;;
42518;SDS011;28147;47.520;18.920;2022-12-15T08:28:47;43.28;;;19.33;;
42518;SDS011;28147;47.520;18.920;2022-12-15T08:31:14;45.10;;;19.08;;
42518;SDS011;28147;47.520;18.920;2022-12-15T08:33:41;36.53;;;18.02;;
42518;SDS011;28147;47.520;18.920;2022-12-15T08:36:16;34.15;;;15.90;;
42518;SDS011;28147;47.520;18.920;2022-12-15T08:38:43;33.38;;;15.73;;
42518;SDS011;28147;47.520;18.920;2022-12-15T08:41:11;32.60;;;15.32;;
42518;SDS011;28147;47.520;18.920;2022-12-15T08:43:45;33.22;;;16.02;;
42518;SDS011;28147;47.520;18.920;2022-12-15T08:46:11;35.15;;;16.67;;
42518;SDS011;28147;47.520;18.920;2022-12-15T08:48:38;39.38;;;18.10;;
42518;SDS011;28147;47.520;18.920;2022-12-15T08:51:03;38.42;;;18.20;;
42518;SDS011;28147;47.520;18.920;2022-12-15T08:53:29;39.55;;;16.95;;
42518;SDS011;28147;47.520;18.920;2022-12-15T08:55:54;38.10;;;18.17;;
42518;SDS011;28147;47.520;18.920;2022-12-15T08:58:20;41.63;;;18.75;;
42518;SDS011;28147;47.520;18.920;2022-12-15T09:00:45;40.10;;;17.40;;
42518;SDS011;28147;47.520;18.920;2022-12-15T09:03:11;37.63;;;18.13;;
42518;SDS011;28147;47.520;18.920;2022-12-15T09:05:37;43.45;;;20.08;;
42518;SDS011;28147;47.520;18.920;2022-12-15T09:08:03;41.95;;;19.25;;
42518;SDS011;28147;47.520;18.920;2022-12-15T09:10:39;43.67;;;19.05;;
42518;SDS011;28147;47.520;18.920;2022-12-15T09:13:05;41.25;;;17.85;;
42518;SDS011;28147;47.520;18.920;2022-12-15T09:15:31;35.45;;;17.35;;
42518;SDS011;28147;47.520;18.920;2022-12-15T09:17:56;37.30;;;18.10;;
42518;SDS011;28147;47.520;18.920;2022-12-15T09:20:22;41.22;;;19.27;;
42518;SDS011;28147;47.520;18.920;2022-12-15T09:22:47;45.28;;;18.83;;
42518;SDS011;28147;47.520;18.920;2022-12-15T09:25:13;44.40;;;20.50;;
42518;SDS011;28147;47.520;18.920;2022-12-15T09:27:38;43.47;;;18.83;;
42518;SDS011;28147;47.520;18.920;2022-12-15T09:30:03;41.90;;;18.67;;
42518;SDS011;28147;47.520;18.920;2022-12-15T09:32:30;49.38;;;19.73;;
42518;SDS011;28147;47.520;18.920;2022-12-15T09:34:56;41.58;;;19.08;;
42518;SDS011;28147;47.520;18.920;2022-12-15T09:37:21;40.28;;;19.38;;
42518;SDS011;28147;47.520;18.920;2022-12-15T09:39:46;48.13;;;20.52;;
42518;SDS011;28147;47.520;18.920;2022-12-15T09:44:47;52.25;;;22.42;;
42518;SDS011;28147;47.520;18.920;2022-12-15T09:47:17;54.40;;;22.48;;
42518;SDS011;28147;47.520;18.920;2022-12-15T09:52:27;46.75;;;19.45;;
42518;SDS011;28147;47.520;18.920;2022-12-15T09:54:57;43.28;;;18.05;;
42518;SDS011;28147;47.520;18.920;2022-12-15T10:07:54;38.72;;;18.77;;
42518;SDS011;28147;47.520;18.920;2022-12-15T10:10:29;48.47;;;19.95;;
42518;SDS011;28147;47.520;18.920;2022-12-15T10:13:09;41.05;;;19.90;;
42518;SDS011;28147;47.520;18.920;2022-12-15T10:24:56;44.45;;;19.30;;
42518;SDS011;28147;47.520;18.920;2022-12-15T10:35:25;41.88;;;17.48;;
42518;SDS011;28147;47.520;18.920;2022-12-15T10:46:05;35.35;;;16.70;;
42518;SDS011;28147;47.520;18.920;2022-12-15T10:48:58;35.05;;;16.30;;
42518;SDS011;28147;47.520;18.920;2022-12-15T10:51:51;40.42;;;17.50;;
42518;SDS011;28147;47.520;18.920;2022-12-15T10:59:37;43.72;;;17.90;;
42518;SDS011;28147;47.520;18.920;2022-12-15T11:02:25;39.08;;;17.98;;
42518;SDS011;28147;47.520;18.920;2022-12-15T11:04:57;46.30;;;18.10;;
42518;SDS011;28147;47.520;18.920;2022-12-15T11:07:37;44.80;;;18.02;;
42518;SDS011;28147;47.520;18.920;2022-12-15T11:21:00;43.55;;;17.98;;
42518;SDS011;28147;47.520;18.920;2022-12-15T11:31:48;39.60;;;18.35;;
42518;SDS011;28147;47.520;18.920;2022-12-15T11:34:19;42.17;;;18.33;;
42518;SDS011;28147;47.520;18.920;2022-12-15T11:47:18;39.45;;;17.80;;
42518;SDS011;28147;47.520;18.920;2022-12-15T11:52:49;40.15;;;16.83;;
42518;SDS011;28147;47.520;18.920;2022-12-15T12:00:35;37.05;;;17.45;;
42518;SDS011;28147;47.520;18.920;2022-12-15T12:13:34;39.53;;;19.63;;
42518;SDS011;28147;47.520;18.920;2022-12-15T12:16:52;44.72;;;19.67;;
42518;SDS011;28147;47.520;18.920;2022-12-15T12:19:26;39.22;;;18.30;;
42518;SDS011;28147;47.520;18.920;2022-12-15T12:37:51;40.35;;;18.55;;
42518;SDS011;28147;47.520;18.920;2022-12-15T12:42:55;41.97;;;18.85;;
42518;SDS011;28147;47.520;18.920;2022-12-15T12:45:23;38.20;;;18.30;;
42518;SDS011;28147;47.520;18.920;2022-12-15T12:47:57;37.25;;;17.33;;
42518;SDS011;28147;47.520;18.920;2022-12-15T12:50:31;37.83;;;16.85;;
42518;SDS011;28147;47.520;18.920;2022-12-15T12:52:58;43.20;;;17.25;;
42518;SDS011;28147;47.520;18.920;2022-12-15T12:55:28;40.92;;;17.67;;
42518;SDS011;28147;47.520;18.920;2022-12-15T12:58:01;45.90;;;17.98;;
42518;SDS011;28147;47.520;18.920;2022-12-15T13:00:28;42.42;;;20.00;;
42518;SDS011;28147;47.520;18.920;2022-12-15T13:02:56;40.83;;;18.60;;
42518;SDS011;28147;47.520;18.920;2022-12-15T13:05:34;40.42;;;18.00;;
42518;SDS011;28147;47.520;18.920;2022-12-15T13:10:36;35.13;;;17.58;;
42518;SDS011;28147;47.520;18.920;2022-12-15T13:14:19;37.83;;;17.55;;
42518;SDS011;28147;47.520;18.920;2022-12-15T13:16:54;42.92;;;18.30;;
42518;SDS011;28147;47.520;18.920;2022-12-15T13:24:52;41.60;;;17.85;;
42518;SDS011;28147;47.520;18.920;2022-12-15T13:27:20;36.78;;;16.95;;
42518;SDS011;28147;47.520;18.920;2022-12-15T13:35:02;41.70;;;18.05;;
42518;SDS011;28147;47.520;18.920;2022-12-15T13:37:50;26.10;;;12.73;;
42518;SDS011;28147;47.520;18.920;2022-12-15T13:40:31;37.85;;;17.67;;
42518;SDS011;28147;47.520;18.920;2022-12-15T13:45:51;37.70;;;18.58;;
42518;SDS011;28147;47.520;18.920;2022-12-15T13:48:29;40.42;;;18.17;;
42518;SDS011;28147;47.520;18.920;2022-12-15T13:51:00;38.78;;;18.42;;
42518;SDS011;28147;47.520;18.920;2022-12-15T13:53:42;43.05;;;20.58;;
42518;SDS011;28147;47.520;18.920;2022-12-15T13:58:49;38.30;;;19.35;;
42518;SDS011;28147;47.520;18.920;2022-12-15T14:01:52;38.40;;;19.80;;
42518;SDS011;28147;47.520;18.920;2022-12-15T14:04:18;42.40;;;18.45;;
42518;SDS011;28147;47.520;18.920;2022-12-15T14:10:56;39.45;;;18.95;;
42518;SDS011;28147;47.520;18.920;2022-12-15T14:13:32;46.00;;;21.27;;
42518;SDS011;28147;47.520;18.920;2022-12-15T14:18:44;29.65;;;13.98;;
42518;SDS011;28147;47.520;18.920;2022-12-15T14:21:27;39.83;;;17.70;;
42518;SDS011;28147;47.520;18.920;2022-12-15T14:23:54;42.67;;;19.08;;
42518;SDS011;28147;47.520;18.920;2022-12-15T14:26:24;41.22;;;18.13;;
42518;SDS011;28147;47.520;18.920;2022-12-15T14:29:20;42.92;;;19.98;;
42518;SDS011;28147;47.520;18.920;2022-12-15T14:34:59;36.67;;;18.10;;
42518;SDS011;28147;47.520;18.920;2022-12-15T14:46:56;36.33;;;17.23;;
42518;SDS011;28147;47.520;18.920;2022-12-15T14:52:58;32.42;;;16.70;;
42518;SDS011;28147;47.520;18.920;2022-12-15T15:01:36;40.53;;;18.25;;
42518;SDS011;28147;47.520;18.920;2022-12-15T15:13:03;40.70;;;18.88;;
42518;SDS011;28147;47.520;18.920;2022-12-15T15:19:21;51.20;;;19.42;;
42518;SDS011;28147;47.520;18.920;2022-12-15T15:37:50;39.10;;;17.23;;
42518;SDS011;28147;47.520;18.920;2022-12-15T15:40:17;41.47;;;18.50;;
42518;SDS011;28147;47.520;18.920;2022-12-15T15:44:15;38.20;;;18.50;;
42518;SDS011;28147;47.520;18.920;2022-12-15T15:46:48;51.30;;;19.08;;
42518;SDS011;28147;47.520;18.920;2022-12-15T15:54:49;42.72;;;16.67;;
42518;SDS011;28147;47.520;18.920;2022-12-15T16:00:40;35.00;;;16.55;;
42518;SDS011;28147;47.520;18.920;2022-12-15T16:07:35;33.88;;;14.27;;
42518;SDS011;28147;47.520;18.920;2022-12-15T16:12:58;30.42;;;15.55;;
42518;SDS011;28147;47.520;18.920;2022-12-15T16:15:28;34.30;;;15.25;;
42518;SDS011;28147;47.520;18.920;2022-12-15T16:19:00;34.60;;;15.25;;
42518;SDS011;28147;47.520;18.920;2022-12-15T16:21:26;32.22;;;14.27;;
42518;SDS011;28147;47.520;18.920;2022-12-15T16:53:19;30.55;;;13.40;;
42518;SDS011;28147;47.520;18.920;2022-12-15T16:59:53;25.05;;;10.93;;
42518;SDS011;28147;47.520;18.920;2022-12-15T17:13:47;26.30;;;12.25;;
42518;SDS011;28147;47.520;18.920;2022-12-15T17:25:14;22.70;;;11.90;;
42518;SDS011;28147;47.520;18.920;2022-12-15T17:33:58;22.38;;;11.15;;
42518;SDS011;28147;47.520;18.920;2022-12-15T17:37:36;20.30;;;10.63;;
42518;SDS011;28147;47.520;18.920;2022-12-15T17:40:03;19.92;;;10.20;;
42518;SDS011;28147;47.520;18.920;2022-12-15T17:44:37;23.70;;;9.95;;
42518;SDS011;28147;47.520;18.920;2022-12-15T17:47:04;21.85;;;10.50;;
42518;SDS011;28147;47.520;18.920;2022-12-15T17:49:30;21.25;;;9.90;;
42518;SDS011;28147;47.520;18.920;2022-12-15T17:54:26;21.60;;;9.40;;
42518;SDS011;28147;47.520;18.920;2022-12-15T17:56:51;20.75;;;9.75;;
42518;SDS011;28147;47.520;18.920;2022-12-15T18:02:31;21.83;;;9.15;;
42518;SDS011;28147;47.520;18.920;2022-12-15T18:09:16;16.42;;;8.48;;
42518;SDS011;28147;47.520;18.920;2022-12-15T18:11:43;16.20;;;8.07;;
42518;SDS011;28147;47.520;18.920;2022-12-15T18:18:20;15.73;;;8.25;;
42518;SDS011;28147;47.520;18.920;2022-12-15T18:21:14;18.02;;;8.32;;
42518;SDS011;28147;47.520;18.920;2022-12-15T18:23:41;18.20;;;8.98;;
42518;SDS011;28147;47.520;18.920;2022-12-15T18:26:08;16.75;;;8.98;;
42518;SDS011;28147;47.520;18.920;2022-12-15T18:30:42;15.60;;;7.70;;
42518;SDS011;28147;47.520;18.920;2022-12-15T18:33:19;16.05;;;8.40;;
42518;SDS011;28147;47.520;18.920;2022-12-15T18:35:47;13.70;;;7.88;;
42518;SDS011;28147;47.520;18.920;2022-12-15T18:42:55;18.08;;;8.57;;
42518;SDS011;28147;47.520;18.920;2022-12-15T18:45:22;14.70;;;8.13;;
42518;SDS011;28147;47.520;18.920;2022-12-15T18:47:50;15.50;;;8.20;;
42518;SDS011;28147;47.520;18.920;2022-12-15T18:54:20;17.50;;;8.38;;
42518;SDS011;28147;47.520;18.920;2022-12-15T18:58:12;12.65;;;7.22;;
42518;SDS011;28147;47.520;18.920;2022-12-15T19:01:46;13.68;;;7.70;;
42518;SDS011;28147;47.520;18.920;2022-12-15T19:04:13;18.60;;;8.55;;
42518;SDS011;28147;47.520;18.920;2022-12-15T19:10:08;14.50;;;7.30;;
42518;SDS011;28147;47.520;18.920;2022-12-15T19:24:46;11.98;;;6.05;;
42518;SDS011;28147;47.520;18.920;2022-12-15T19:30:12;14.45;;;6.57;;
42518;SDS011;28147;47.520;18.920;2022-12-15T19:32:49;13.30;;;7.05;;
42518;SDS011;28147;47.520;18.920;2022-12-15T19:35:14;14.77;;;6.90;;
42518;SDS011;28147;47.520;18.920;2022-12-15T19:38:16;13.80;;;7.50;;
42518;SDS011;28147;47.520;18.920;2022-12-15T19:40:45;12.38;;;7.03;;
42518;SDS011;28147;47.520;18.920;2022-12-15T19:43:12;12.48;;;6.10;;
42518;SDS011;28147;47.520;18.920;2022-12-15T19:45:40;9.20;;;5.93;;
42518;SDS011;28147;47.520;18.920;2022-12-15T19:53:37;11.98;;;6.90;;
42518;SDS011;28147;47.520;18.920;2022-12-15T19:57:16;15.63;;;8.43;;
42518;SDS011;28147;47.520;18.920;2022-12-15T20:00:13;16.40;;;8.10;;
42518;SDS011;28147;47.520;18.920;2022-12-15T20:04:19;16.45;;;8.23;;
42518;SDS011;28147;47.520;18.920;2022-12-15T20:09:28;15.75;;;8.02;;
42518;SDS011;28147;47.520;18.920;2022-12-15T20:11:53;14.02;;;7.82;;
42518;SDS011;28147;47.520;18.920;2022-12-15T20:14:20;12.25;;;7.15;;
42518;SDS011;28147;47.520;18.920;2022-12-15T20:19:05;19.33;;;7.32;;
42518;SDS011;28147;47.520;18.920;2022-12-15T20:21:35;13.23;;;7.00;;
42518;SDS011;28147;47.520;18.920;2022-12-15T20:33:07;16.48;;;7.72;;
42518;SDS011;28147;47.520;18.920;2022-12-15T20:35:32;14.82;;;7.50;;
42518;SDS011;28147;47.520;18.920;2022-12-15T20:44:00;15.00;;;8.55;;
42518;SDS011;28147;47.520;18.920;2022-12-15T20:46:26;17.23;;;8.02;;
42518;SDS011;28147;47.520;18.920;2022-12-15T20:49:56;20.13;;;9.30;;
42518;SDS011;28147;47.520;18.920;2022-12-15T20:52:22;16.45;;;8.07;;
42518;SDS011;28147;47.520;18.920;2022-12-15T20:54:51;17.73;;;8.50;;
42518;SDS011;28147;47.520;18.920;2022-12-15T21:02:22;16.33;;;8.05;;
42518;SDS011;28147;47.520;18.920;2022-12-15T21:04:48;15.55;;;7.75;;
42518;SDS011;28147;47.520;18.920;2022-12-15T21:07:14;16.73;;;8.05;;
42518;SDS011;28147;47.520;18.920;2022-12-15T21:09:59;15.77;;;7.75;;
42518;SDS011;28147;47.520;18.920;2022-12-15T21:12:25;17.08;;;8.30;;
42518;SDS011;28147;47.520;18.920;2022-12-15T21:14:52;17.13;;;8.20;;
42518;SDS011;28147;47.520;18.920;2022-12-15T21:19:54;19.60;;;8.20;;
42518;SDS011;28147;47.520;18.920;2022-12-15T21:28:21;15.05;;;8.27;;
42518;SDS011;28147;47.520;18.920;2022-12-15T21:30:47;16.25;;;8.13;;
42518;SDS011;28147;47.520;18.920;2022-12-15T21:33:21;16.40;;;8.45;;
42518;SDS011;28147;47.520;18.920;2022-12-15T21:44:11;16.67;;;7.65;;
42518;SDS011;28147;47.520;18.920;2022-12-15T21:47:43;17.90;;;7.80;;
42518;SDS011;28147;47.520;18.920;2022-12-15T21:50:39;16.50;;;7.88;;